.
WxDataArchive / Data Records for 2006-06-18
2006-06-17 June 2006 2006-06-19

Data Records for Sunday, 18 June 2006

Time	Temp	Chill	HIndex	Humid	Dewpt	 Wind 	HiWind	WindDir	Rain 	Barom 
-----	----	-----	------	-----	-----	------	------	-------	-----	----- 
00:00	79.0	79.0	80.4	56	61.9	0	2	270	0.00	29.891 
00:05	79.0	79.0	80.5	57	62.4	0	3	315	0.00	29.891 
00:10	78.8	78.8	80.3	57	62.3	0	2	225	0.00	29.891 
00:15	78.6	78.6	80.1	58	62.6	0	3	225	0.00	29.881 
00:20	78.5	78.5	80.0	58	62.5	0	2	202	0.00	29.881 
00:25	78.3	78.3	79.9	59	62.8	0	2	158	0.00	29.881 
00:30	78.1	78.1	79.8	60	63.1	0	1	158	0.00	29.880 
00:35	78.1	78.1	79.8	60	63.1	1	3	68	0.00	29.880 
00:40	78.1	78.1	79.8	61	63.5	1	5	248	0.00	29.880 
00:45	78.1	78.1	79.8	61	63.5	2	4	248	0.00	29.877 
00:50	78.3	78.3	80.1	62	64.2	2	9	248	0.00	29.877 
00:55	78.5	78.5	80.3	62	64.4	1	5	225	0.00	29.877 
01:00	78.5	78.5	80.3	62	64.4	1	4	248	0.00	29.872 
01:05	78.5	78.5	80.3	62	64.4	2	5	270	0.00	29.872 
01:10	78.6	78.6	80.4	62	64.5	3	10	248	0.00	29.872 
01:15	78.8	78.8	80.5	61	64.2	3	10	248	0.00	29.871 
01:20	79.0	79.0	80.8	61	64.4	3	10	248	0.00	29.871 
01:25	78.8	78.8	80.6	62	64.7	3	10	270	0.00	29.871 
01:30	78.5	78.5	80.3	62	64.4	3	9	270	0.00	29.875 
01:35	78.3	78.3	80.1	63	64.6	3	9	248	0.00	29.875 
01:40	78.1	78.1	79.9	64	64.9	4	11	248	0.00	29.875 
01:45	77.7	77.7	79.5	64	64.5	3	9	270	0.00	29.877 
01:50	77.6	77.6	79.4	65	64.9	4	9	248	0.00	29.877 
01:55	77.4	77.4	79.2	65	64.7	3	9	270	0.00	29.877 
02:00	77.0	77.0	78.8	66	64.8	2	5	248	0.00	29.877 
02:05	76.8	76.8	78.6	67	65.0	2	4	248	0.00	29.877 
02:10	76.7	76.7	78.5	68	65.3	2	4	248	0.00	29.877 
02:15	76.7	76.7	78.5	68	65.3	2	5	270	0.00	29.878 
02:20	76.7	76.7	78.4	69	65.7	2	4	248	0.00	29.878 
02:25	76.5	76.5	78.2	69	65.6	1	4	248	0.00	29.878 
02:30	76.1	76.1	77.8	69	65.2	2	4	248	0.00	29.878 
02:35	76.0	76.0	77.7	70	65.5	1	6	248	0.00	29.878 
02:40	75.8	75.8	77.4	70	65.3	3	6	248	0.00	29.878 
02:45	75.6	75.6	77.2	71	65.5	2	5	270	0.00	29.881 
02:50	75.4	75.4	76.9	72	65.7	2	6	248	0.00	29.881 
02:55	75.1	75.1	76.6	72	65.4	2	9	248	0.00	29.881 
03:00	75.1	75.1	76.5	73	65.8	2	10	248	0.00	29.883 
03:05	75.1	75.1	76.5	73	65.8	2	6	248	0.00	29.883 
03:10	74.9	74.9	74.9	73	65.6	2	5	248	0.00	29.883 
03:15	74.6	74.6	74.6	73	65.4	1	4	248	0.00	29.881 
03:20	74.6	74.6	74.6	72	65.0	2	4	248	0.00	29.881 
03:25	74.4	74.4	74.4	72	64.8	2	6	248	0.00	29.881 
03:30	74.4	74.4	74.4	72	64.8	2	7	248	0.00	29.885 
03:35	74.4	74.4	74.4	72	64.8	1	3	248	0.00	29.885 
03:40	74.2	74.2	74.2	72	64.6	1	3	248	0.00	29.885 
03:45	74.2	74.2	74.2	72	64.6	1	5	270	0.00	29.881 
03:50	74.2	74.2	74.2	71	64.2	1	3	270	0.00	29.881 
03:55	74.0	74.0	74.0	72	64.4	1	3	248	0.00	29.881 
04:00	73.9	73.9	73.9	72	64.3	1	3	270	0.00	29.888 
04:05	73.9	73.9	73.9	72	64.3	1	4	248	0.00	29.888 
04:10	73.7	73.7	73.7	72	64.1	0	4	270	0.00	29.888 
04:15	73.5	73.5	73.5	73	64.3	1	3	270	0.00	29.883 
04:20	73.5	73.5	73.5	73	64.3	1	3	270	0.00	29.883 
04:25	73.3	73.3	73.3	73	64.1	0	1	248	0.00	29.883 
04:30	73.2	73.2	73.2	74	64.4	0	3	248	0.00	29.883 
04:35	73.0	73.0	73.0	74	64.2	0	4	270	0.00	29.883 
04:40	73.0	73.0	73.0	75	64.6	0	4	270	0.00	29.883 
04:45	72.8	72.8	72.8	75	64.4	0	3	248	0.00	29.881 
04:50	72.7	72.7	72.7	76	64.7	0	2	248	0.00	29.881 
04:55	72.7	72.7	72.7	76	64.7	0	1	248	0.00	29.881 
05:00	72.5	72.5	72.5	76	64.5	0	2	248	0.00	29.877 
05:05	72.3	72.3	72.3	77	64.7	0	2	225	0.00	29.877 
05:10	72.1	72.1	72.1	77	64.5	0	1	202	0.00	29.877 
05:15	72.1	72.1	72.1	77	64.5	0	1	202	0.00	29.878 
05:20	72.0	72.0	72.0	78	64.8	0	1	202	0.00	29.878 
05:25	71.8	71.8	71.8	78	64.6	0	3	112	0.00	29.878 
05:30	71.8	71.8	71.8	78	64.6	1	2	112	0.00	29.879 
05:35	71.8	71.8	71.8	78	64.6	0	2	68	0.00	29.879 
05:40	71.6	71.6	71.6	79	64.7	1	2	68	0.00	29.879 
05:45	71.5	71.5	71.5	79	64.6	1	3	68	0.00	29.881 
05:50	71.5	71.5	71.5	79	64.6	1	5	90	0.00	29.881 
05:55	71.5	71.5	71.5	79	64.6	1	3	112	0.00	29.881 
06:00	71.5	71.5	71.5	79	64.6	1	4	112	0.00	29.881 
06:05	71.5	71.5	71.5	79	64.6	1	2	112	0.00	29.881 
06:10	71.5	71.5	71.5	80	65.0	1	2	112	0.00	29.881 
06:15	71.3	71.3	71.3	80	64.8	1	2	112	0.00	29.882 
06:20	71.3	71.3	71.3	80	64.8	1	3	45	0.00	29.882 
06:25	71.5	71.5	71.5	80	65.0	1	3	90	0.00	29.882 
06:30	71.5	71.5	71.5	80	65.0	0	1	90	0.00	29.882 
06:35	71.5	71.5	71.5	80	65.0	1	5	90	0.00	29.882 
06:40	71.6	71.6	71.6	80	65.1	0	3	90	0.00	29.882 
06:45	71.8	71.8	71.8	80	65.3	1	3	112	0.00	29.883 
06:50	71.8	71.8	71.8	80	65.3	0	2	90	0.00	29.883 
06:55	72.0	72.0	72.0	79	65.1	1	3	248	0.00	29.883 
07:00	72.3	72.3	72.3	79	65.4	1	4	248	0.00	29.883 
07:05	72.5	72.5	72.5	79	65.6	0	2	248	0.00	29.883 
07:10	72.8	72.8	72.8	78	65.5	1	3	248	0.00	29.883 
07:15	73.0	73.0	73.0	77	65.3	1	4	270	0.00	29.888 
07:20	73.2	73.2	73.2	77	65.5	2	6	248	0.00	29.888 
07:25	73.3	73.3	73.3	77	65.6	2	9	248	0.00	29.888 
07:30	73.5	73.5	73.5	76	65.5	3	6	248	0.00	29.889 
07:35	73.9	73.9	73.9	76	65.8	3	6	248	0.00	29.889 
07:40	74.0	74.0	74.0	75	65.6	4	7	270	0.00	29.889 
07:45	74.0	74.0	74.0	76	65.9	3	7	248	0.00	29.895 
07:50	74.0	74.0	74.0	76	65.9	3	7	248	0.00	29.895 
07:55	74.0	74.0	74.0	76	65.9	3	7	248	0.00	29.895 
08:00	74.2	74.2	74.2	75	65.8	3	9	248	0.00	29.897 
08:05	74.2	74.2	74.2	76	66.1	3	7	270	0.00	29.897 
08:10	74.4	74.4	74.4	76	66.3	2	5	248	0.00	29.897 
08:15	74.2	74.2	74.2	77	66.5	2	5	248	0.00	29.895 
08:20	73.9	73.9	73.9	78	66.6	2	5	248	0.00	29.895 
08:25	73.3	73.3	73.3	81	67.1	2	6	248	0.00	29.895 
08:30	73.0	73.0	73.0	82	67.2	2	5	270	0.00	29.901 
08:35	72.8	72.8	72.8	82	67.0	1	3	248	0.00	29.901 
08:40	72.8	72.8	72.8	82	67.0	2	7	248	0.00	29.901 
08:45	72.7	72.7	72.7	83	67.2	1	4	248	0.00	29.900 
08:50	72.7	72.7	72.7	82	66.9	2	9	248	0.00	29.900 
08:55	72.8	72.8	72.8	82	67.0	2	5	270	0.00	29.900 
09:00	73.0	73.0	73.0	81	66.8	2	5	248	0.00	29.895 
09:05	73.3	73.3	73.3	81	67.1	2	9	270	0.00	29.895 
09:10	74.4	74.4	74.4	80	67.8	2	8	90	0.00	29.895 
09:15	74.7	74.7	74.7	77	67.0	3	7	90	0.00	29.886 
09:20	74.9	74.9	74.9	79	67.9	2	6	45	0.00	29.886 
09:25	74.9	74.9	74.9	77	67.2	2	12	248	0.00	29.886 
09:30	74.9	74.9	74.9	76	66.8	3	7	270	0.00	29.885 
09:35	74.7	74.7	74.7	77	67.0	2	5	270	0.00	29.885 
09:40	74.6	74.6	74.6	77	66.9	2	4	270	0.00	29.885 
09:45	74.4	74.4	74.4	78	67.1	3	6	270	0.00	29.887 
09:50	73.9	73.9	73.9	80	67.3	2	6	248	0.00	29.887 
09:55	73.9	73.9	73.9	79	67.0	2	9	248	0.00	29.887 
10:00	73.9	73.9	73.9	80	67.3	2	10	248	0.00	29.886 
10:05	74.0	74.0	74.0	81	67.8	2	6	90	0.00	29.886 
10:10	74.4	74.4	74.4	79	67.4	3	10	90	0.00	29.886 
10:15	74.6	74.6	74.6	78	67.3	4	12	248	0.00	29.888 
10:20	74.7	74.7	74.7	77	67.0	3	7	270	0.00	29.888 
10:25	75.1	75.1	76.0	78	67.8	2	6	248	0.00	29.888 
10:30	75.3	75.3	76.3	77	67.6	3	9	292	0.00	29.887 
10:35	75.3	75.3	76.3	77	67.6	3	7	68	0.00	29.887 
10:40	75.4	75.4	76.4	77	67.7	3	12	248	0.00	29.887 
10:45	75.6	75.6	76.8	76	67.5	2	6	248	0.00	29.887 
10:50	75.4	75.4	76.6	75	66.9	2	9	270	0.00	29.887 
10:55	75.4	75.4	76.5	76	67.3	2	6	270	0.00	29.887 
11:00	75.4	75.4	76.6	75	66.9	3	9	270	0.00	29.883 
11:05	75.8	75.8	77.0	77	68.1	2	7	248	0.00	29.883 
11:10	76.3	76.3	77.7	75	67.8	3	11	248	0.00	29.883 
11:15	76.3	76.3	77.8	74	67.4	3	12	68	0.00	29.882 
11:20	76.3	76.3	77.8	74	67.4	3	10	90	0.00	29.882 
11:25	76.3	76.3	77.8	73	67.0	3	7	270	0.00	29.882 
11:30	76.1	76.1	77.5	74	67.2	3	14	270	0.00	29.886 
11:35	76.0	76.0	77.3	76	67.9	3	14	270	0.00	29.886 
11:40	76.3	76.3	77.6	77	68.5	2	5	248	0.00	29.886 
11:45	76.3	76.3	77.7	75	67.8	3	10	270	0.00	29.887 
11:50	75.8	75.8	77.2	74	66.9	5	17	270	0.00	29.887 
11:55	75.6	75.6	76.8	76	67.5	4	12	270	0.00	29.887 
12:00	75.8	75.8	77.1	75	67.3	3	7	270	0.00	29.887 
12:05	76.0	76.0	77.5	73	66.7	4	13	248	0.00	29.887 
12:10	75.8	75.8	77.2	74	66.9	4	7	270	0.00	29.887 
12:15	75.8	75.8	77.1	75	67.3	3	6	270	0.00	29.887 
12:20	75.6	75.6	76.8	76	67.5	4	14	248	0.00	29.887 
12:25	75.4	75.4	76.4	77	67.7	3	9	270	0.00	29.887 
12:30	75.3	75.3	76.3	77	67.6	4	10	270	0.00	29.885 
12:35	75.4	75.4	76.4	77	67.7	3	5	248	0.00	29.885 
12:40	75.6	75.6	76.7	77	67.9	4	11	270	0.00	29.885 
12:45	75.6	75.6	76.6	78	68.2	3	5	270	0.00	29.880 
12:50	75.3	75.3	76.2	78	68.0	3	10	270	0.00	29.880 
12:55	74.9	74.9	74.9	79	67.9	3	11	248	0.00	29.880 
13:00	74.4	74.4	74.4	81	68.2	3	10	68	0.00	29.878 
13:05	74.0	74.0	74.0	84	68.8	2	6	270	0.00	29.878 
13:10	74.4	74.4	74.4	84	69.2	2	5	0	0.00	29.878 
13:15	74.7	74.7	74.7	81	68.5	3	7	90	0.00	29.862 
13:20	74.7	74.7	74.7	81	68.5	3	7	90	0.00	29.862 
13:25	74.6	74.6	74.6	81	68.4	2	10	270	0.00	29.862 
13:30	74.2	74.2	74.2	81	68.0	3	8	248	0.00	29.864 
13:35	74.0	74.0	74.0	83	68.5	2	7	248	0.00	29.864 
13:40	73.9	73.9	73.9	84	68.7	1	11	248	0.00	29.864 
13:45	74.2	74.2	74.2	84	69.0	2	5	248	0.00	29.857 
13:50	74.6	74.6	74.6	82	68.7	2	7	248	0.00	29.857 
13:55	74.7	74.7	74.7	81	68.5	2	6	68	0.00	29.857 
14:00	75.1	75.1	75.6	81	68.9	2	4	90	0.00	29.850 
14:05	75.6	75.6	76.6	78	68.2	3	10	68	0.00	29.850 
14:10	76.5	76.5	77.9	77	68.7	2	7	22	0.00	29.850 
14:15	77.2	77.2	79.0	75	68.6	2	6	248	0.00	29.838 
14:20	77.6	77.6	79.6	74	68.6	2	10	270	0.00	29.838 
14:25	77.4	77.4	79.3	74	68.4	2	6	248	0.00	29.838 
14:30	77.6	77.6	79.6	75	69.0	2	6	112	0.00	29.830 
14:35	77.9	77.9	79.9	72	68.1	4	7	90	0.00	29.830 
14:40	77.6	77.6	79.5	71	67.4	4	11	90	0.00	29.830 
14:45	77.2	77.2	79.0	73	67.9	1	6	270	0.00	29.822 
14:50	76.8	76.8	78.4	74	67.9	2	7	248	0.00	29.822 
14:55	76.5	76.5	78.0	75	68.0	2	7	90	0.00	29.822 
15:00	76.0	76.0	77.2	78	68.6	2	6	90	0.01	29.816 
15:05	75.3	75.3	76.0	80	68.7	2	7	112	0.00	29.816 
15:10	75.1	75.1	75.7	80	68.5	2	7	90	0.00	29.816 
15:15	74.9	74.9	74.9	81	68.7	2	9	270	0.01	29.811 
15:20	74.4	74.4	74.4	82	68.5	2	6	45	0.00	29.811 
15:25	74.0	74.0	74.0	83	68.5	3	9	270	0.00	29.811 
15:30	73.7	73.7	73.7	84	68.6	3	11	248	0.01	29.817 
15:35	72.8	72.8	72.8	85	68.0	5	12	270	0.01	29.817 
15:40	72.1	72.1	72.1	88	68.3	3	8	248	0.01	29.817 
15:45	71.8	71.8	71.8	89	68.4	2	6	270	0.01	29.821 
15:50	71.6	71.6	71.6	90	68.5	2	5	270	0.01	29.821 
15:55	71.6	71.6	71.6	91	68.8	2	9	270	0.01	29.821 
16:00	71.6	71.6	71.6	91	68.8	2	6	248	0.00	29.817 
16:05	71.8	71.8	71.8	92	69.3	2	5	248	0.00	29.817 
16:10	71.8	71.8	71.8	91	69.0	5	12	270	0.01	29.817 
16:15	72.0	72.0	72.0	91	69.2	4	11	270	0.01	29.815 
16:20	72.0	72.0	72.0	90	68.9	4	9	270	0.00	29.815 
16:25	72.1	72.1	72.1	89	68.7	4	13	248	0.00	29.815 
16:30	72.1	72.1	72.1	90	69.0	4	9	248	0.01	29.826 
16:35	71.6	71.6	71.6	89	68.2	4	9	270	0.04	29.826 
16:40	70.9	70.9	70.9	90	67.8	3	7	270	0.00	29.826 
16:45	70.6	70.6	70.6	90	67.5	3	5	270	0.01	29.829 
16:50	70.3	70.3	70.3	90	67.2	3	5	248	0.01	29.829 
16:55	69.9	69.9	69.9	91	67.1	3	6	248	0.01	29.829 
17:00	69.8	69.8	69.8	90	66.7	3	5	248	0.00	29.820 
17:05	69.9	69.9	69.9	91	67.1	2	5	248	0.00	29.820 
17:10	70.1	70.1	70.1	92	67.7	3	5	248	0.00	29.820 
17:15	70.4	70.4	70.4	92	68.0	2	5	248	0.00	29.833 
17:20	70.6	70.6	70.6	91	67.8	3	7	248	0.00	29.833 
17:25	70.8	70.8	70.8	90	67.7	2	6	248	0.00	29.833 
17:30	70.9	70.9	70.9	89	67.5	3	5	248	0.00	29.833 
17:35	71.1	71.1	71.1	88	67.4	3	7	248	0.00	29.833 
17:40	71.6	71.6	71.6	88	67.8	2	6	270	0.00	29.833 
17:45	71.8	71.8	71.8	87	67.7	2	5	270	0.00	29.831 
17:50	71.6	71.6	71.6	86	67.2	2	6	248	0.00	29.831 
17:55	71.5	71.5	71.5	86	67.1	3	7	248	0.00	29.831 
18:00	71.6	71.6	71.6	86	67.2	3	6	248	0.00	29.843 
18:05	71.6	71.6	71.6	84	66.5	2	5	248	0.00	29.843 
18:10	71.8	71.8	71.8	84	66.7	2	6	248	0.00	29.843 
18:15	71.8	71.8	71.8	84	66.7	2	4	248	0.00	29.844 
18:20	72.0	72.0	72.0	84	66.9	2	6	248	0.00	29.844 
18:25	72.3	72.3	72.3	84	67.2	1	3	248	0.00	29.844 
18:30	72.7	72.7	72.7	83	67.2	2	4	248	0.00	29.847 
18:35	72.7	72.7	72.7	82	66.9	2	5	248	0.00	29.847 
18:40	72.7	72.7	72.7	82	66.9	2	4	248	0.00	29.847 
18:45	72.8	72.8	72.8	81	66.6	2	5	248	0.00	29.847 
18:50	72.8	72.8	72.8	81	66.6	2	7	270	0.00	29.847 
18:55	73.0	73.0	73.0	85	68.2	1	5	248	0.00	29.847 
19:00	72.8	72.8	72.8	81	66.6	2	4	248	0.00	29.847 
19:05	72.7	72.7	72.7	80	66.2	2	3	248	0.00	29.847 
19:10	72.7	72.7	72.7	80	66.2	1	6	248	0.00	29.847 
19:15	72.8	72.8	72.8	80	66.3	1	3	270	0.00	29.844 
19:20	72.8	72.8	72.8	79	65.9	1	4	270	0.00	29.844 
19:25	72.8	72.8	72.8	80	66.3	1	3	248	0.00	29.844 
19:30	72.8	72.8	72.8	80	66.3	1	3	248	0.00	29.847 
19:35	72.8	72.8	72.8	80	66.3	1	3	248	0.00	29.847 
19:40	72.8	72.8	72.8	80	66.3	0	2	248	0.00	29.847 
19:45	72.7	72.7	72.7	81	66.5	1	4	248	0.00	29.847 
19:50	72.7	72.7	72.7	81	66.5	1	3	248	0.00	29.847 
19:55	72.7	72.7	72.7	81	66.5	1	2	248	0.00	29.847 
20:00	72.7	72.7	72.7	81	66.5	0	1	248	0.00	29.853 
20:05	72.5	72.5	72.5	81	66.3	0	2	248	0.00	29.853 
20:10	72.5	72.5	72.5	81	66.3	0	2	248	0.00	29.853 
20:15	72.5	72.5	72.5	81	66.3	0	2	248	0.00	29.859 
20:20	72.5	72.5	72.5	81	66.3	0	1	248	0.00	29.859 
20:25	72.5	72.5	72.5	82	66.7	0	1	248	0.00	29.859 
20:30	72.5	72.5	72.5	82	66.7	0	1	248	0.00	29.865 
20:35	72.5	72.5	72.5	82	66.7	1	3	248	0.00	29.865 
20:40	72.5	72.5	72.5	82	66.7	0	2	248	0.00	29.865 
20:45	72.5	72.5	72.5	82	66.7	0	2	248	0.00	29.870 
20:50	72.5	72.5	72.5	82	66.7	0	2	248	0.00	29.870 
20:55	72.3	72.3	72.3	82	66.5	0	4	248	0.00	29.870 
21:00	72.3	72.3	72.3	82	66.5	1	2	248	0.00	29.874 
21:05	72.3	72.3	72.3	82	66.5	1	3	248	0.00	29.874 
21:10	72.3	72.3	72.3	82	66.5	0	3	248	0.00	29.874 
21:15	72.3	72.3	72.3	82	66.5	0	3	248	0.00	29.872 
21:20	72.3	72.3	72.3	83	66.8	0	1	248	0.00	29.872 
21:25	72.1	72.1	72.1	83	66.6	0	3	248	0.00	29.872 
21:30	72.3	72.3	72.3	83	66.8	2	3	248	0.01	29.871 
21:35	72.1	72.1	72.1	85	67.3	1	4	270	0.01	29.871 
21:40	71.6	71.6	71.6	86	67.2	1	3	270	0.00	29.871 
21:45	71.1	71.1	71.1	87	67.0	1	4	248	0.01	29.876 
21:50	70.9	70.9	70.9	88	67.2	2	5	248	0.00	29.876 
21:55	70.8	70.8	70.8	88	67.1	2	6	248	0.00	29.876 
22:00	70.3	70.3	70.3	88	66.6	2	9	248	0.00	29.876 
22:05	69.8	69.8	69.8	87	65.7	2	5	248	0.00	29.876 
22:10	69.4	69.4	69.4	87	65.4	2	4	248	0.00	29.876 
22:15	69.1	69.1	69.1	88	65.4	1	3	248	0.00	29.872 
22:20	68.9	68.9	68.9	88	65.2	1	3	248	0.00	29.872 
22:25	68.6	68.6	68.6	88	64.9	2	5	248	0.00	29.872 
22:30	68.4	68.4	68.4	88	64.7	1	3	248	0.00	29.876 
22:35	68.3	68.3	68.3	89	64.9	1	2	248	0.00	29.876 
22:40	68.3	68.3	68.3	89	64.9	0	2	248	0.01	29.876 
22:45	68.1	68.1	68.1	90	65.0	0	1	248	0.00	29.876 
22:50	68.1	68.1	68.1	90	65.0	0	1	248	0.00	29.876 
22:55	67.9	67.9	67.9	90	64.9	0	1	248	0.00	29.876 
23:00	67.8	67.8	67.8	90	64.8	0	1	248	0.00	29.874 
23:05	67.6	67.6	67.6	90	64.6	0	1	248	0.00	29.874 
23:10	67.6	67.6	67.6	90	64.6	0	2	248	0.00	29.874 
23:15	67.4	67.4	67.4	91	64.7	1	2	248	0.01	29.870 
23:20	67.3	67.3	67.3	90	64.3	1	2	248	0.00	29.870 
23:25	67.3	67.3	67.3	89	63.9	0	1	248	0.00	29.870 
23:30	67.1	67.1	67.1	89	63.7	0	1	248	0.00	29.867 
23:35	67.1	67.1	67.1	90	64.1	0	1	248	0.00	29.867 
23:40	67.1	67.1	67.1	90	64.1	0	0	---	0.00	29.867 
23:45	66.9	66.9	66.9	91	64.2	0	0	---	0.00	29.871 
23:50	66.9	66.9	66.9	91	64.2	0	0	---	0.00	29.871 
23:55	66.8	66.8	66.8	91	64.1	0	0	---	0.00	29.871 

CoCoRaHS
IN-AL-39
A2 Web Hosting
Creative Commons License
GoDaddy
Look for:

loaded 2017-10-19 19:54:03 • last modified 2010-11-18 10:43:29
Privacy PolicyDisclaimer
• wx.awcolley.com is powered by PmWiki v.2002016 •
• all content (unless otherwise noted) © 2017 A W Colley